createdAt,value
2023-04-25T00:00:58.507Z,3.05
2023-04-25T00:06:03.369Z,3.67
2023-04-25T00:11:04.990Z,2.85
2023-04-25T00:16:06.563Z,2.70
2023-04-25T00:21:08.399Z,2.45
2023-04-25T00:26:09.954Z,2.58
2023-04-25T00:31:11.470Z,2.47
2023-04-25T00:36:13.008Z,2.70
2023-04-25T00:41:14.562Z,2.40
2023-04-25T00:46:16.158Z,2.40
2023-04-25T00:51:20.154Z,2.83
2023-04-25T00:56:22.321Z,2.90
2023-04-25T01:01:23.997Z,2.20
2023-04-25T01:06:25.792Z,2.20
2023-04-25T01:11:27.298Z,3.55
2023-04-25T01:16:29.086Z,2.40
2023-04-25T01:21:31.910Z,2.65
2023-04-25T01:26:33.440Z,3.03
2023-04-25T01:31:35.898Z,3.10
2023-04-25T01:36:37.832Z,2.55
2023-04-25T01:41:39.443Z,2.38
2023-04-25T01:46:40.965Z,2.63
2023-04-25T01:51:42.619Z,2.80
2023-04-25T01:56:44.185Z,2.35
2023-04-25T02:01:45.797Z,3.25
2023-04-25T02:06:47.481Z,2.85
2023-04-25T02:11:49.305Z,2.10
2023-04-25T02:16:52.481Z,2.55
2023-04-25T02:21:54.229Z,2.58
2023-04-25T02:26:56.946Z,3.15
2023-04-25T02:31:58.477Z,2.00
2023-04-25T02:36:59.897Z,3.20
2023-04-25T02:42:02.086Z,1.75
2023-04-25T02:47:04.551Z,2.40
2023-04-25T02:52:06.426Z,1.88
2023-04-25T02:57:08.067Z,1.90
2023-04-25T03:02:11.117Z,1.60
2023-04-25T03:07:12.691Z,1.92
2023-04-25T03:12:14.166Z,1.60
2023-04-25T03:17:15.628Z,2.15
2023-04-25T03:22:17.100Z,1.80
2023-04-25T03:27:18.805Z,2.25
2023-04-25T03:32:20.803Z,1.73
2023-04-25T03:37:22.457Z,2.45
2023-04-25T03:42:24.052Z,2.20
2023-04-25T03:47:25.694Z,1.80
2023-04-25T03:52:27.198Z,2.00
2023-04-25T03:57:28.627Z,2.05
2023-04-25T04:02:30.261Z,2.42
2023-04-25T04:07:33.947Z,2.10
2023-04-25T04:12:35.612Z,1.88
2023-04-25T04:17:37.262Z,2.13
2023-04-25T04:22:38.767Z,1.70
2023-04-25T04:27:41.650Z,2.10
2023-04-25T04:32:43.185Z,2.13
2023-04-25T04:37:46.922Z,1.90
2023-04-25T04:42:48.452Z,2.45
2023-04-25T04:47:50.656Z,2.10
2023-04-25T04:52:52.109Z,2.25
2023-04-25T04:57:53.526Z,2.08
2023-04-25T05:02:55.112Z,1.90
2023-04-25T05:07:56.677Z,2.17
2023-04-25T05:12:58.197Z,2.38
2023-04-25T05:17:59.717Z,1.67
2023-04-25T05:23:01.250Z,1.80
2023-04-25T05:28:02.750Z,1.90
2023-04-25T05:33:04.337Z,1.85
2023-04-25T05:38:05.840Z,2.00
2023-04-25T05:43:07.418Z,1.77
2023-04-25T05:48:08.970Z,2.00
2023-04-25T05:53:10.548Z,2.33
2023-04-25T05:58:12.175Z,1.60
2023-04-25T06:03:17.761Z,1.75
2023-04-25T06:08:21.224Z,1.58
2023-04-25T06:13:25.225Z,1.75
2023-04-25T06:18:26.748Z,1.90
2023-04-25T06:23:28.210Z,2.22
2023-04-25T06:28:29.927Z,1.75
2023-04-25T06:33:31.709Z,2.20
2023-04-25T06:38:34.466Z,2.00
2023-04-25T06:43:36.059Z,1.98
2023-04-25T06:48:37.602Z,1.60
2023-04-25T06:53:39.131Z,1.48
2023-04-25T06:58:40.613Z,1.50
2023-04-25T07:03:42.237Z,1.88
2023-04-25T07:08:43.862Z,2.00
2023-04-25T07:13:45.316Z,1.40
2023-04-25T07:18:47.899Z,1.50
2023-04-25T07:23:49.470Z,1.02
2023-04-25T07:28:54.316Z,1.40
2023-04-25T07:33:55.916Z,1.33
2023-04-25T07:38:57.381Z,1.30
2023-04-25T07:43:59.018Z,1.90
2023-04-25T07:49:00.601Z,1.60
2023-04-25T07:54:02.047Z,1.95
2023-04-25T07:59:03.828Z,2.25
2023-04-25T08:04:05.738Z,2.00
2023-04-25T08:09:07.582Z,2.33
2023-04-25T08:14:09.092Z,1.70
2023-04-25T08:19:11.285Z,1.90
2023-04-25T08:24:12.900Z,1.63
2023-04-25T08:29:14.411Z,2.10
2023-04-25T08:34:16.388Z,1.80
2023-04-25T08:39:17.994Z,1.55
2023-04-25T08:44:20.770Z,1.48
2023-04-25T08:49:22.424Z,1.67
2023-04-25T08:54:35.137Z,1.58
2023-04-25T08:59:40.041Z,1.92
2023-04-25T09:04:42.715Z,1.40
2023-04-25T09:09:44.260Z,1.10
2023-04-25T09:15:01.790Z,1.33
2023-04-25T09:20:09.540Z,1.33
2023-04-25T09:25:12.355Z,1.50
2023-04-25T09:30:16.456Z,1.70
2023-04-25T09:35:29.854Z,1.70
2023-04-25T09:40:31.476Z,2.05
2023-04-25T09:45:33.007Z,1.75
2023-04-25T09:50:34.713Z,1.48
2023-04-25T09:55:37.287Z,1.58
2023-04-25T10:00:38.872Z,1.33
2023-04-25T10:05:41.520Z,1.30
2023-04-25T10:10:43.677Z,1.40
2023-04-25T10:15:45.995Z,1.67
2023-04-25T10:20:47.561Z,1.65
2023-04-25T10:25:50.058Z,1.38
2023-04-25T10:31:09.753Z,1.45
2023-04-25T10:36:24.476Z,1.42
2023-04-25T10:41:26.063Z,1.30
2023-04-25T10:46:30.916Z,1.33
2023-04-25T10:51:47.400Z,1.25
2023-04-25T10:56:54.831Z,1.55
2023-04-25T11:01:56.895Z,1.40
2023-04-25T11:07:05.921Z,1.40
2023-04-25T11:12:09.472Z,1.67
2023-04-25T11:17:12.131Z,1.67
2023-04-25T11:22:13.643Z,1.40
2023-04-25T11:27:15.513Z,1.60
2023-04-25T11:32:17.465Z,1.73
2023-04-25T11:37:19.535Z,1.50
2023-04-25T11:42:21.679Z,1.60
2023-04-25T11:47:28.806Z,1.55
2023-04-25T11:52:40.704Z,1.58
2023-04-25T11:57:43.071Z,1.85
2023-04-25T12:02:45.384Z,1.63
2023-04-25T12:07:47.457Z,1.45
2023-04-25T12:12:50.299Z,1.40
2023-04-25T12:17:52.755Z,1.88
2023-04-25T12:22:54.418Z,1.42
2023-04-25T12:27:55.889Z,1.40
2023-04-25T12:32:57.722Z,1.65
2023-04-25T12:37:59.414Z,1.63
2023-04-25T12:43:02.040Z,1.38
2023-04-25T12:48:04.371Z,1.60
2023-04-25T12:53:05.910Z,1.50
2023-04-25T12:58:07.394Z,1.65
2023-04-25T13:03:09.512Z,1.58
2023-04-25T13:08:11.084Z,1.38
2023-04-25T13:13:12.635Z,1.83
2023-04-25T13:18:14.309Z,1.40
2023-04-25T13:23:15.877Z,1.40
2023-04-25T13:28:17.423Z,1.55
2023-04-25T13:33:19.242Z,2.17
2023-04-25T13:38:26.963Z,1.50
2023-04-25T13:43:28.453Z,1.45
2023-04-25T13:48:29.951Z,1.95
2023-04-25T13:53:31.406Z,1.55
2023-04-25T13:58:33.957Z,1.50
2023-04-25T14:03:35.519Z,1.40
2023-04-25T14:08:37.258Z,1.55
2023-04-25T14:13:38.730Z,1.27
2023-04-25T14:18:40.344Z,1.40
2023-04-25T14:23:41.771Z,1.50
2023-04-25T14:28:43.351Z,1.52
2023-04-25T14:33:44.893Z,1.90
2023-04-25T14:38:46.757Z,1.45
2023-04-25T14:43:48.235Z,2.05
2023-04-25T14:48:50.121Z,2.03
2023-04-25T14:53:52.256Z,1.60
2023-04-25T14:58:54.097Z,1.85
2023-04-25T15:03:56.020Z,1.50
2023-04-25T15:08:57.992Z,1.30
2023-04-25T15:13:59.977Z,1.92
2023-04-25T15:19:04.851Z,1.92
2023-04-25T15:24:06.499Z,1.83
2023-04-25T15:29:08.017Z,1.52
2023-04-25T15:34:09.601Z,1.33
2023-04-25T15:39:11.091Z,1.58
2023-04-25T15:44:12.542Z,2.00
2023-04-25T15:49:14.044Z,2.30
2023-04-25T15:54:16.000Z,1.83
2023-04-25T15:59:17.483Z,2.17
2023-04-25T16:04:19.188Z,2.35
2023-04-25T16:09:21.020Z,1.88
2023-04-25T16:14:22.452Z,2.20
2023-04-25T16:19:24.531Z,2.20
2023-04-25T16:24:26.668Z,1.90
2023-04-25T16:29:28.145Z,2.20
2023-04-25T16:34:29.966Z,2.90
2023-04-25T16:39:31.589Z,2.40
2023-04-25T16:44:33.071Z,2.85
2023-04-25T16:49:34.616Z,2.28
2023-04-25T16:54:37.281Z,2.95
2023-04-25T16:59:39.248Z,2.58
2023-04-25T17:04:41.175Z,3.67
2023-04-25T17:09:42.664Z,2.50
2023-04-25T17:14:46.008Z,2.60
2023-04-25T17:19:48.137Z,2.40
2023-04-25T17:24:49.837Z,2.60
2023-04-25T17:29:51.581Z,2.25
2023-04-25T17:34:53.088Z,2.28
2023-04-25T17:39:54.714Z,2.80
2023-04-25T17:44:56.272Z,2.80
2023-04-25T17:49:57.869Z,2.60
2023-04-25T17:54:59.507Z,2.40
2023-04-25T18:00:00.984Z,2.25
2023-04-25T18:05:09.159Z,2.47
2023-04-25T18:10:12.022Z,2.70
2023-04-25T18:15:13.580Z,2.22
2023-04-25T18:20:16.483Z,2.70
2023-04-25T18:25:18.845Z,3.00
2023-04-25T18:30:20.491Z,2.60
2023-04-25T18:35:22.671Z,2.83
2023-04-25T18:40:24.179Z,2.67
2023-04-25T18:45:25.801Z,3.15
2023-04-25T18:50:27.277Z,3.00
2023-04-25T18:55:30.463Z,3.28
2023-04-25T19:00:32.752Z,3.47
2023-04-25T19:05:34.248Z,3.13
2023-04-25T19:10:36.888Z,3.47
2023-04-25T19:15:39.567Z,3.03
2023-04-25T19:20:41.700Z,3.15
2023-04-25T19:25:43.135Z,3.33
2023-04-25T19:30:45.932Z,2.95
2023-04-25T19:35:47.578Z,3.13
2023-04-25T19:40:49.420Z,2.97
2023-04-25T19:45:51.260Z,2.65
2023-04-25T19:50:52.874Z,3.08
2023-04-25T19:55:54.404Z,3.13
2023-04-25T20:00:57.607Z,3.35
2023-04-25T20:06:00.219Z,2.63
2023-04-25T20:11:02.003Z,2.50
2023-04-25T20:16:03.595Z,2.20
2023-04-25T20:21:05.589Z,2.78
2023-04-25T20:26:07.210Z,3.00
2023-04-25T20:31:09.580Z,2.80
2023-04-25T20:36:11.200Z,3.00
2023-04-25T20:41:13.143Z,6.07
2023-04-25T20:46:15.005Z,6.68
2023-04-25T20:51:16.769Z,4.90
2023-04-25T20:56:19.094Z,4.82
2023-04-25T21:01:20.691Z,5.18
2023-04-25T21:06:22.176Z,5.30
2023-04-25T21:11:23.842Z,4.05
2023-04-25T21:16:25.575Z,4.15
2023-04-25T21:21:27.408Z,5.13
2023-04-25T21:26:28.919Z,5.65
2023-04-25T21:31:30.908Z,4.32
2023-04-25T21:36:33.255Z,4.22
2023-04-25T21:41:34.878Z,2.92
2023-04-25T21:46:36.703Z,3.17
2023-04-25T21:51:38.605Z,3.10
2023-04-25T21:56:40.084Z,3.30
2023-04-25T22:01:41.614Z,3.03
2023-04-25T22:06:43.099Z,3.15
2023-04-25T22:11:44.578Z,3.17
2023-04-25T22:16:46.266Z,3.35
2023-04-25T22:21:48.610Z,2.45
2023-04-25T22:26:50.235Z,2.65
2023-04-25T22:31:52.341Z,3.40
2023-04-25T22:36:55.132Z,2.72
2023-04-25T22:41:57.937Z,2.95
2023-04-25T22:46:59.569Z,2.30
2023-04-25T22:52:01.317Z,2.00
2023-04-25T22:57:06.632Z,2.10
2023-04-25T23:02:09.299Z,2.30
2023-04-25T23:07:10.783Z,1.75
2023-04-25T23:12:12.896Z,2.33
2023-04-25T23:17:14.468Z,2.05
2023-04-25T23:22:15.950Z,2.10
2023-04-25T23:27:17.842Z,1.90
2023-04-25T23:32:19.520Z,2.80
2023-04-25T23:37:21.320Z,2.00
2023-04-25T23:42:22.780Z,2.13
2023-04-25T23:47:24.239Z,2.28
2023-04-25T23:52:27.675Z,2.20
2023-04-25T23:57:29.206Z,1.90
